Ta-wu, Taiwan
Current Conditions -  °F | °C
As of 8:30 AM on Tuesday 25 Nov 2014 (Local Time) from RCKH Reporting Station
Few Clouds Few Clouds  
Wind Chill: 25°   Ceiling: Unl
Heat Index: 26°   Visibility: 5mi
Dew Point: 19°   Wind: 6mph
Humidity: 69%   Direction: 30°NNE
Pressure: 29.94"   Gusts: NA
Location:  22.37°N, 120.9°E
Report Text: RCKH 250030Z 03005KT 350V070 8000 FEW015 25/19 Q1014 NOSIGRMK A2997
Loading
Personal Weather Stations






























Interactive Weather Map New forecast layout! Learn more

10-Day Weather Forecast

Advertisements
Track Severe Weather on mobile